Time;durP1;ratioP1;P1;durP2;ratioP2;P2;SDS_P1;SDS_P2;PMS_P1;PMS_P2;Temp;Humidity;BMP_temperature;BMP_pressure;BME280_temperature;BME280_humidity;BME280_pressure;Samples;Min_cycle;Max_cycle;Signal;HPM_P1;HPM_P2
2022/05/31 00:00:04;;;;;;;;;;;;;;;7.38;100.00;100925.22;5070845;28;19925;-82
2022/05/31 00:02:40;;;;;;;;;;;;;;;7.37;100.00;100915.44;5075827;28;19928;-83
2022/05/31 00:05:13;;;;;;;;;;;;;;;7.38;100.00;100917.91;5070112;28;19942;-84
2022/05/31 00:07:42;;;;;;;;;;;;;;;7.38;100.00;100917.09;5070241;28;20312;-84
2022/05/31 00:10:11;;;;;;;;;;;;;;;7.39;100.00;100927.66;5071022;28;19932;-83
2022/05/31 00:12:45;;;;;;;;;;;;;;;7.34;100.00;100924.09;5071846;28;19929;-83
2022/05/31 00:15:15;;;;;;;;;;;;;;;7.34;100.00;100924.09;5071617;28;19935;-83
2022/05/31 00:17:49;;;;;;;;;;;;;;;7.35;100.00;100926.53;5069271;28;19928;-83
2022/05/31 00:20:22;;;;;;;;;;;;;;;7.35;100.00;100920.28;5069611;28;19925;-84
2022/05/31 00:22:51;;;;;;;;;;;;;;;7.30;100.00;100918.34;5069528;28;19940;-84
2022/05/31 00:25:24;;;;;;;;;;;;;;;7.30;100.00;100912.94;5069686;28;19935;-83
2022/05/31 00:27:57;;;;;;;;;;;;;;;7.22;100.00;100924.19;5071162;28;19928;-82
2022/05/31 00:30:25;;;;;;;;;;;;;;;7.23;100.00;100920.44;5070191;28;20431;-83
2022/05/31 00:32:55;;;;;;;;;;;;;;;7.26;100.00;100923.44;5056833;28;19971;-83
2022/05/31 00:35:30;;;;;;;;;;;;;;;7.25;100.00;100927.22;5061120;28;19929;-84
2022/05/31 00:38:03;;;;;;;;;;;;;;;7.24;100.00;100924.78;5070807;28;19936;-83
2022/05/31 00:40:36;;;;;;;;;;;;;;;7.23;100.00;100918.53;5070513;28;20324;-83
2022/05/31 00:43:06;;;;;;;;;;;;;;;7.24;100.00;100920.16;5071111;28;19929;-83
2022/05/31 00:45:36;;;;;;;;;;;;;;;7.19;100.00;100911.16;5070583;28;20288;-83
2022/05/31 00:48:14;;;;;;;;;;;;;;;7.18;100.00;100917.66;5070410;28;19928;-83
2022/05/31 00:50:51;;;;;;;;;;;;;;;7.19;100.00;100919.28;5069317;28;19928;-84
2022/05/31 00:53:26;;;;;;;;;;;;;;;7.20;100.00;100927.16;5069245;28;19935;-82
2022/05/31 00:56:01;;;;;;;;;;;;;;;7.21;100.00;100914.44;5069009;28;19928;-83
2022/05/31 00:58:32;;;;;;;;;;;;;;;7.18;100.00;100918.47;5068773;28;19928;-84
2022/05/31 01:01:09;;;;;;;;;;;;;;;7.18;100.00;100917.66;5068973;28;19928;-83
2022/05/31 01:03:44;;;;;;;;;;;;;;;7.17;100.00;100918.72;5070268;28;19928;-83
2022/05/31 01:06:17;;;;;;;;;;;;;;;7.10;100.00;100917.00;5070570;28;19929;-83
2022/05/31 01:08:54;;;;;;;;;;;;;;;7.13;100.00;100921.13;5068122;28;19928;-83
2022/05/31 01:11:35;;;;;;;;;;;;;;;7.05;100.00;100911.53;5073733;28;20403;-83
2022/05/31 01:14:28;;;;;;;;;;;;;;;6.99;100.00;100917.97;5077419;28;19929;-83
2022/05/31 01:17:30;;;;;;;;;;;;;;;7.06;100.00;100913.19;5069971;28;19924;-83
2022/05/31 01:20:23;;;;;;;;;;;;;;;7.05;100.00;100908.00;5067791;28;19924;-83
2022/05/31 01:23:06;;;;;;;;;;;;;;;7.04;100.00;100909.88;5049087;28;19925;-83
2022/05/31 01:25:50;;;;;;;;;;;;;;;6.91;100.00;100908.38;5048591;28;19935;-83
2022/05/31 01:28:30;;;;;;;;;;;;;;;6.89;100.00;100910.53;5047986;28;20420;-82
2022/05/31 01:31:06;;;;;;;;;;;;;;;6.89;100.00;100912.38;5053803;28;19943;-84
2022/05/31 01:33:44;;;;;;;;;;;;;;;6.90;100.00;100922.16;5070141;28;19966;-83
2022/05/31 01:36:14;;;;;;;;;;;;;;;6.89;100.00;100915.94;5061362;28;19936;-82
2022/05/31 01:38:50;;;;;;;;;;;;;;;6.76;100.00;100918.97;5069299;28;19928;-83
2022/05/31 01:41:27;;;;;;;;;;;;;;;6.75;100.00;100922.75;5068891;28;19947;-83
2022/05/31 01:44:02;;;;;;;;;;;;;;;6.75;100.00;100923.59;5055273;28;20305;-82
2022/05/31 01:46:36;;;;;;;;;;;;;;;6.72;100.00;100924.06;5050007;28;19928;-83
2022/05/31 01:49:12;;;;;;;;;;;;;;;6.75;100.00;100925.44;5062960;28;19924;-83
2022/05/31 01:51:42;;;;;;;;;;;;;;;6.74;100.00;100932.75;5069153;28;19936;-85
2022/05/31 01:54:18;;;;;;;;;;;;;;;6.70;100.00;100928.06;5068787;28;19928;-84
2022/05/31 01:56:55;;;;;;;;;;;;;;;6.65;100.00;100928.81;5055847;28;19929;-84
2022/05/31 01:59:24;;;;;;;;;;;;;;;6.57;100.00;100929.25;5067718;28;20277;-82
2022/05/31 02:01:58;;;;;;;;;;;;;;;6.62;100.00;100923.91;5068045;28;19935;-83
2022/05/31 02:04:27;;;;;;;;;;;;;;;6.63;100.00;100926.38;5066097;28;19924;-83
2022/05/31 02:07:12;;;;;;;;;;;;;;;6.69;100.00;100926.44;5074321;28;20396;-83
2022/05/31 02:09:48;;;;;;;;;;;;;;;6.64;100.00;100924.47;5069800;28;19928;-84
2022/05/31 02:12:28;;;;;;;;;;;;;;;6.59;100.00;100921.72;5072518;28;19936;-83
2022/05/31 02:15:25;;;;;;;;;;;;;;;6.56;100.00;100923.03;5074532;28;19939;-84
2022/05/31 02:18:16;;;;;;;;;;;;;;;6.55;100.00;100918.66;5091716;28;19928;-84
2022/05/31 02:21:10;;;;;;;;;;;;;;;6.46;100.00;100920.97;5069397;28;19928;-83
2022/05/31 02:23:39;;;;;;;;;;;;;;;6.48;100.00;100915.31;5071863;28;19959;-83
2022/05/31 02:26:07;;;;;;;;;;;;;;;6.45;100.00;100922.03;5082462;28;20392;-84
2022/05/31 02:28:41;;;;;;;;;;;;;;;6.43;100.00;100931.47;5068736;28;20388;-83
2022/05/31 02:31:14;;;;;;;;;;;;;;;6.34;100.00;100924.81;5078281;28;19928;-82
2022/05/31 02:33:47;;;;;;;;;;;;;;;6.36;100.00;100918.09;5073266;28;19943;-84
2022/05/31 02:36:15;;;;;;;;;;;;;;;6.39;100.00;100924.91;5069513;28;20365;-83
2022/05/31 02:38:50;;;;;;;;;;;;;;;6.35;100.00;100929.16;5068139;28;19928;-83
2022/05/31 02:41:32;;;;;;;;;;;;;;;6.37;100.00;100924.34;5072928;28;20594;-84
2022/05/31 02:44:00;;;;;;;;;;;;;;;6.27;100.00;100922.25;5070284;28;19936;-83
2022/05/31 02:46:34;;;;;;;;;;;;;;;6.26;100.00;100929.56;5066428;28;19928;-83
2022/05/31 02:49:04;;;;;;;;;;;;;;;6.29;100.00;100933.66;5078337;28;19928;-83
2022/05/31 02:51:38;;;;;;;;;;;;;;;6.37;100.00;100929.75;5069252;28;20451;-84
2022/05/31 02:54:08;;;;;;;;;;;;;;;6.32;100.00;100922.34;5072166;28;19931;-83
2022/05/31 02:56:55;;;;;;;;;;;;;;;6.30;100.00;100921.78;5076205;28;19940;-84
2022/05/31 02:59:49;;;;;;;;;;;;;;;6.28;100.00;100916.63;5063478;28;19928;-84
2022/05/31 03:02:49;;;;;;;;;;;;;;;6.30;100.00;100919.91;5084528;28;20427;-83
2022/05/31 03:05:35;;;;;;;;;;;;;;;6.27;100.00;100916.84;5077367;28;19928;-84
2022/05/31 03:08:27;;;;;;;;;;;;;;;6.23;100.00;100919.25;5074087;28;19924;-83
2022/05/31 03:11:18;;;;;;;;;;;;;;;6.22;100.00;100923.00;5075799;28;20396;-84
2022/05/31 03:13:48;;;;;;;;;;;;;;;6.23;100.00;100924.66;5079017;28;19936;-84
2022/05/31 03:16:22;;;;;;;;;;;;;;;6.32;100.00;100924.25;5075313;28;19995;-84
2022/05/31 03:19:01;;;;;;;;;;;;;;;6.22;100.00;100917.59;5077448;28;19935;-84
2022/05/31 03:21:31;;;;;;;;;;;;;;;6.29;100.00;100920.16;5077145;28;19939;-83
2022/05/31 03:24:08;;;;;;;;;;;;;;;6.22;100.00;100922.19;5077876;28;19938;-84
2022/05/31 03:26:40;;;;;;;;;;;;;;;6.25;100.00;100919.81;5069747;28;19924;-84
2022/05/31 03:29:13;;;;;;;;;;;;;;;6.25;100.00;100917.09;5077359;28;19932;-84
2022/05/31 03:31:41;;;;;;;;;;;;;;;6.26;100.00;100923.34;5077979;28;19936;-84
2022/05/31 03:34:09;;;;;;;;;;;;;;;6.19;100.00;100914.59;5072667;28;19936;-83
2022/05/31 03:36:43;;;;;;;;;;;;;;;6.25;100.00;100922.50;5066965;28;19929;-84
2022/05/31 03:39:15;;;;;;;;;;;;;;;6.25;100.00;100919.81;5072413;28;19924;-83
2022/05/31 03:41:50;;;;;;;;;;;;;;;6.22;100.00;100919.50;5073409;28;20341;-84
2022/05/31 03:44:23;;;;;;;;;;;;;;;6.23;100.00;100921.16;5072061;28;19933;-84
2022/05/31 03:47:06;;;;;;;;;;;;;;;6.24;100.00;100920.06;5073842;28;19929;-84
2022/05/31 03:49:59;;;;;;;;;;;;;;;6.20;100.00;100919.75;5069163;28;19939;-84
2022/05/31 03:52:32;;;;;;;;;;;;;;;6.15;100.00;100922.34;5076293;28;19937;-84
2022/05/31 03:55:03;;;;;;;;;;;;;;;6.13;100.00;100922.59;5079133;28;19925;-84
2022/05/31 03:57:46;;;;;;;;;;;;;;;6.15;100.00;100929.66;5076857;28;20568;-84
2022/05/31 04:00:47;;;;;;;;;;;;;;;6.15;100.00;100924.25;5060178;28;19925;-83
2022/05/31 04:03:21;;;;;;;;;;;;;;;6.13;100.00;100933.41;5073019;28;20304;-84
2022/05/31 04:05:54;;;;;;;;;;;;;;;6.15;100.00;100919.66;5078994;28;19935;-84
2022/05/31 04:08:24;;;;;;;;;;;;;;;6.15;100.00;100929.66;5069159;28;19928;-83
2022/05/31 04:10:57;;;;;;;;;;;;;;;6.19;100.00;100934.31;5070958;28;19925;-83
2022/05/31 04:13:28;;;;;;;;;;;;;;;6.16;100.00;100933.97;5072480;28;19935;-84
2022/05/31 04:16:20;;;;;;;;;;;;;;;6.08;100.00;100932.50;5093572;28;19924;-84
2022/05/31 04:18:56;;;;;;;;;;;;;;;6.18;100.00;100929.97;5070728;28;19932;-84
2022/05/31 04:21:30;;;;;;;;;;;;;;;6.17;100.00;100932.91;5066872;28;19928;-84
2022/05/31 04:24:08;;;;;;;;;;;;;;;6.28;100.00;100929.31;5074209;28;19940;-84
2022/05/31 04:26:59;;;;;;;;;;;;;;;6.38;100.00;100931.38;5080202;28;20381;-83
2022/05/31 04:29:40;;;;;;;;;;;;;;;6.44;100.00;100925.00;5072133;28;19926;-84
2022/05/31 04:32:26;;;;;;;;;;;;;;;6.50;100.00;100934.81;5071032;28;19928;-84
2022/05/31 04:35:04;;;;;;;;;;;;;;;6.57;100.00;100931.94;5065092;28;19932;-83
2022/05/31 04:37:33;;;;;;;;;;;;;;;6.63;100.00;100930.97;5068629;28;20238;-83
2022/05/31 04:40:14;;;;;;;;;;;;;;;6.73;100.00;100941.13;5065618;28;19929;-84
2022/05/31 04:43:01;;;;;;;;;;;;;;;6.80;100.00;100933.66;5066880;28;19928;-84
2022/05/31 04:45:37;;;;;;;;;;;;;;;6.93;100.00;100936.00;5087434;28;19935;-83
2022/05/31 04:48:36;;;;;;;;;;;;;;;7.03;100.00;100938.03;5061202;28;19929;-83
2022/05/31 04:51:09;;;;;;;;;;;;;;;7.15;100.00;100938.75;5077061;28;20702;-84
2022/05/31 04:53:44;;;;;;;;;;;;;;;7.34;100.00;100938.44;5075765;28;19928;-84
2022/05/31 04:56:33;;;;;;;;;;;;;;;7.41;100.00;100941.75;5073116;28;19939;-84
2022/05/31 04:59:06;;;;;;;;;;;;;;;7.55;100.00;100944.09;5071370;28;20697;-84
2022/05/31 05:01:41;;;;;;;;;;;;;;;7.61;100.00;100943.06;5065628;28;19928;-83
2022/05/31 05:04:23;;;;;;;;;;;;;;;8.36;100.00;100934.34;5072099;28;19935;-84
2022/05/31 05:06:55;;;;;;;;;;;;;;;10.11;100.00;100929.72;5070960;28;20296;-84
2022/05/31 05:09:23;;;;;;;;;;;;;;;11.97;100.00;100916.44;5074777;28;19933;-84
2022/05/31 05:12:15;;;;;;;;;;;;;;;14.05;100.00;100915.53;5074154;28;19925;-85
2022/05/31 05:14:48;;;;;;;;;;;;;;;15.44;100.00;100910.28;5077585;28;19924;-85
2022/05/31 05:17:24;;;;;;;;;;;;;;;16.78;100.00;100906.31;5076110;28;20396;-83
2022/05/31 05:19:52;;;;;;;;;;;;;;;17.63;100.00;100905.25;5068628;28;19932;-84
2022/05/31 05:22:28;;;;;;;;;;;;;;;18.08;92.16;100898.66;5069589;28;19944;-82
2022/05/31 05:24:57;;;;;;;;;;;;;;;19.11;97.08;100895.94;5068639;28;20439;-82
2022/05/31 05:27:36;;;;;;;;;;;;;;;19.18;98.59;100899.00;5061294;28;19936;-83
2022/05/31 05:33:20;;;;;;;;;;;;;;;19.28;94.51;100900.56;5083463;28;19925;-82
2022/05/31 05:36:13;;;;;;;;;;;;;;;19.80;79.88;100899.38;5065929;28;19932;-82
2022/05/31 05:38:49;;;;;;;;;;;;;;;19.02;77.79;100898.72;5064495;28;20447;-82
2022/05/31 05:41:34;;;;;;;;;;;;;;;17.81;100.00;100895.06;5080738;28;19928;-81
2022/05/31 05:44:44;;;;;;;;;;;;;;;15.52;100.00;100916.16;5069346;28;20691;-81
2022/05/31 05:47:15;;;;;;;;;;;;;;;13.95;100.00;100916.50;5060429;28;19940;-81
2022/05/31 05:49:49;;;;;;;;;;;;;;;14.12;100.00;100909.69;5067143;28;19936;-82
2022/05/31 05:52:41;;;;;;;;;;;;;;;14.66;100.00;100915.66;5068182;28;19928;-82
2022/05/31 05:55:32;;;;;;;;;;;;;;;14.31;100.00;100915.13;5077053;28;19928;-81
2022/05/31 05:58:15;;;;;;;;;;;;;;;14.14;100.00;100912.13;5074034;28;20292;-82
2022/05/31 06:01:10;;;;;;;;;;;;;;;13.24;100.00;100907.31;5066751;28;19928;-81
2022/05/31 06:03:49;;;;;;;;;;;;;;;13.16;100.00;100911.53;5079043;28;19928;-84
2022/05/31 06:06:24;;;;;;;;;;;;;;;12.80;100.00;100914.66;5058203;28;20474;-83
2022/05/31 06:09:01;;;;;;;;;;;;;;;12.72;100.00;100920.75;5056666;28;19925;-80
2022/05/31 06:11:37;;;;;;;;;;;;;;;12.61;100.00;100925.50;5060958;28;19940;-80
2022/05/31 06:14:12;;;;;;;;;;;;;;;12.54;100.00;100923.09;5060646;28;19943;-82
2022/05/31 06:16:43;;;;;;;;;;;;;;;12.70;100.00;100920.22;5066790;28;19928;-80
2022/05/31 06:19:17;;;;;;;;;;;;;;;12.74;100.00;100919.34;5062630;28;19936;-81
2022/05/31 06:21:52;;;;;;;;;;;;;;;12.65;100.00;100918.34;5069928;28;19928;-82
2022/05/31 06:24:45;;;;;;;;;;;;;;;12.64;100.00;100922.19;5066572;28;19932;-81
2022/05/31 06:27:51;;;;;;;;;;;;;;;12.50;100.00;100923.97;5063392;28;19929;-80
2022/05/31 06:30:25;;;;;;;;;;;;;;;12.53;100.00;100918.72;5066579;28;19928;-82
2022/05/31 06:32:56;;;;;;;;;;;;;;;12.60;100.00;100923.88;5072319;28;20418;-83
2022/05/31 06:35:29;;;;;;;;;;;;;;;12.80;100.00;100931.06;5066326;28;19928;-82
2022/05/31 06:38:05;;;;;;;;;;;;;;;12.62;100.00;100929.03;5058807;28;19933;-80
2022/05/31 06:40:39;;;;;;;;;;;;;;;12.39;100.00;100934.16;5041024;28;19932;-80
2022/05/31 06:43:13;;;;;;;;;;;;;;;12.49;100.00;100930.53;5042534;28;20317;-80
2022/05/31 06:46:05;;;;;;;;;;;;;;;12.15;100.00;100936.78;5044123;28;19933;-81
2022/05/31 06:49:07;;;;;;;;;;;;;;;12.05;100.00;100938.47;5005670;28;19933;-80
2022/05/31 06:58:27;;;;;;;;;;;;;;;12.37;100.00;100937.19;5038456;28;20455;-81
2022/05/31 07:00:57;;;;;;;;;;;;;;;12.54;100.00;100934.03;5034275;28;19939;-81
2022/05/31 07:03:30;;;;;;;;;;;;;;;12.59;100.00;100941.34;5039915;28;19936;-81
2022/05/31 07:06:03;;;;;;;;;;;;;;;12.36;100.00;100937.44;5038305;28;20573;-82
2022/05/31 07:08:37;;;;;;;;;;;;;;;12.37;100.00;100936.34;5038292;28;19940;-81
2022/05/31 07:11:31;;;;;;;;;;;;;;;12.53;100.00;100937.03;5034615;28;19932;-81
2022/05/31 07:14:17;;;;;;;;;;;;;;;12.69;100.00;100937.69;5036525;28;20562;-80
2022/05/31 07:17:07;;;;;;;;;;;;;;;12.80;100.00;100939.25;5064756;28;20315;-80
2022/05/31 07:19:43;;;;;;;;;;;;;;;12.75;100.00;100936.56;5060111;28;20766;-81
2022/05/31 07:22:17;;;;;;;;;;;;;;;12.79;100.00;100936.78;5058124;28;20490;-80
2022/05/31 07:25:02;;;;;;;;;;;;;;;12.73;100.00;100925.94;5050812;28;19932;-81
2022/05/31 07:27:36;;;;;;;;;;;;;;;12.90;100.00;100927.41;5053633;28;19936;-80
2022/05/31 07:30:10;;;;;;;;;;;;;;;12.91;100.00;100934.47;5049348;28;19929;-81
2022/05/31 07:32:38;;;;;;;;;;;;;;;13.01;100.00;100926.19;5041611;28;19933;-80
2022/05/31 07:35:11;;;;;;;;;;;;;;;12.61;100.00;100924.66;5038082;28;19941;-80
2022/05/31 07:37:45;;;;;;;;;;;;;;;12.87;100.00;100925.22;5033151;28;19936;-83
2022/05/31 07:40:15;;;;;;;;;;;;;;;13.02;100.00;100930.56;5051847;28;19933;-84
2022/05/31 07:42:44;;;;;;;;;;;;;;;13.15;100.00;100923.56;5039701;28;20670;-81
2022/05/31 07:45:18;;;;;;;;;;;;;;;12.89;100.00;100931.22;5049195;28;19933;-80
2022/05/31 07:47:51;;;;;;;;;;;;;;;12.40;100.00;100924.84;5035336;28;19940;-80
2022/05/31 07:50:24;;;;;;;;;;;;;;;12.57;100.00;100921.72;5035019;28;19933;-81
2022/05/31 07:52:59;;;;;;;;;;;;;;;12.73;100.00;100919.63;5033238;28;20376;-80
2022/05/31 07:56:00;;;;;;;;;;;;;;;12.97;100.00;100922.41;5035161;28;19933;-80
2022/05/31 07:58:54;;;;;;;;;;;;;;;12.83;100.00;100915.97;5040205;28;20388;-81
2022/05/31 08:01:25;;;;;;;;;;;;;;;13.29;100.00;100901.00;5042519;28;19952;-82
2022/05/31 08:04:07;;;;;;;;;;;;;;;13.47;100.00;100902.97;5054609;28;19933;-82
2022/05/31 08:06:40;;;;;;;;;;;;;;;13.63;100.00;100914.53;5047680;28;19933;-81
2022/05/31 08:09:13;;;;;;;;;;;;;;;13.49;100.00;100906.25;5037325;28;19939;-81
2022/05/31 08:11:46;;;;;;;;;;;;;;;13.28;100.00;100911.09;5035470;28;19928;-82
2022/05/31 08:14:20;;;;;;;;;;;;;;;13.07;100.00;100913.28;5041942;28;19933;-80
2022/05/31 08:16:48;;;;;;;;;;;;;;;13.34;100.00;100903.66;5031394;28;19933;-82
2022/05/31 08:19:23;;;;;;;;;;;;;;;13.65;100.00;100908.75;5036017;28;19933;-81
2022/05/31 08:21:56;;;;;;;;;;;;;;;14.01;100.00;100905.50;5049365;28;19928;-80
2022/05/31 08:24:29;;;;;;;;;;;;;;;13.87;100.00;100898.03;5033483;28;19933;-80
2022/05/31 08:27:02;;;;;;;;;;;;;;;13.63;100.00;100902.75;5053638;28;19940;-81
2022/05/31 08:29:37;;;;;;;;;;;;;;;13.90;100.00;100902.09;5056384;28;19933;-82
2022/05/31 08:32:10;;;;;;;;;;;;;;;14.14;100.00;100893.78;5041963;28;19979;-81
2022/05/31 08:34:38;;;;;;;;;;;;;;;14.52;100.00;100890.94;5030278;28;20408;-80
2022/05/31 08:37:06;;;;;;;;;;;;;;;14.88;100.00;100892.25;5029602;28;19933;-81
2022/05/31 08:39:34;;;;;;;;;;;;;;;15.09;100.00;100888.00;5032664;28;19933;-81
2022/05/31 08:42:07;;;;;;;;;;;;;;;15.11;100.00;100887.69;5034092;28;19947;-81
2022/05/31 08:44:47;;;;;;;;;;;;;;;14.88;100.00;100887.56;5036813;28;19944;-81
2022/05/31 08:47:23;;;;;;;;;;;;;;;14.66;100.00;100890.19;5040238;28;19937;-82
2022/05/31 08:52:52;;;;;;;;;;;;;;;15.48;100.00;100878.38;5052070;28;20551;-81
2022/05/31 08:58:20;;;;;;;;;;;;;;;14.55;100.00;100876.63;5037374;28;20427;-81
2022/05/31 09:00:56;;;;;;;;;;;;;;;14.25;100.00;100875.25;5030260;28;19933;-81
2022/05/31 09:03:30;;;;;;;;;;;;;;;14.30;100.00;100861.50;5028142;28;19940;-81
2022/05/31 09:06:06;;;;;;;;;;;;;;;14.14;100.00;100877.38;5033085;28;19933;-82
2022/05/31 09:08:37;;;;;;;;;;;;;;;14.14;100.00;100869.16;5051208;28;19928;-81
2022/05/31 09:11:14;;;;;;;;;;;;;;;14.09;100.00;100881.00;5034000;28;19932;-82
2022/05/31 09:13:50;;;;;;;;;;;;;;;13.87;100.00;100878.06;5034917;28;19932;-80
2022/05/31 09:16:34;;;;;;;;;;;;;;;13.71;100.00;100880.22;5034413;28;19932;-81
2022/05/31 09:19:10;;;;;;;;;;;;;;;13.61;100.00;100884.72;5032623;28;19933;-81
2022/05/31 09:21:41;;;;;;;;;;;;;;;13.51;100.00;100884.88;5059725;28;19928;-83
2022/05/31 09:24:15;;;;;;;;;;;;;;;13.26;100.00;100875.88;5031305;28;19933;-81
2022/05/31 09:26:59;;;;;;;;;;;;;;;13.19;100.00;100880.88;5043526;28;19929;-82
2022/05/31 09:29:31;;;;;;;;;;;;;;;13.16;100.00;100876.00;5031006;28;19932;-81
2022/05/31 09:32:06;;;;;;;;;;;;;;;13.17;100.00;100874.09;5036891;28;20741;-81
2022/05/31 09:34:49;;;;;;;;;;;;;;;13.60;100.00;100883.09;5036502;28;19933;-81
2022/05/31 09:37:30;;;;;;;;;;;;;;;13.84;100.00;100876.75;5059540;28;20599;-81
2022/05/31 09:40:14;;;;;;;;;;;;;;;14.14;100.00;100871.91;5029982;28;19933;-82
2022/05/31 09:42:58;;;;;;;;;;;;;;;14.10;100.00;100877.16;5028303;28;19952;-82
2022/05/31 09:45:33;;;;;;;;;;;;;;;13.81;100.00;100871.03;5028075;28;20017;-83
2022/05/31 09:48:08;;;;;;;;;;;;;;;13.73;100.00;100880.75;5033829;28;19939;-83
2022/05/31 09:50:44;;;;;;;;;;;;;;;13.80;100.00;100877.63;5040629;28;19932;-82
2022/05/31 09:59:29;;;;;;;;;;;;;;;14.04;100.00;100869.31;5032743;28;20312;-81
2022/05/31 10:02:26;;;;;;;;;;;;;;;13.92;100.00;100864.28;5041705;28;19936;-82
2022/05/31 10:05:09;;;;;;;;;;;;;;;13.90;100.00;100863.78;5034852;28;19932;-81
2022/05/31 10:07:42;;;;;;;;;;;;;;;14.01;100.00;100867.19;5038475;28;19933;-81
2022/05/31 10:10:16;;;;;;;;;;;;;;;14.18;100.00;100867.44;5052085;28;19932;-81
2022/05/31 10:12:50;;;;;;;;;;;;;;;13.93;100.00;100860.44;5030591;28;19932;-82
2022/05/31 10:15:34;;;;;;;;;;;;;;;14.05;100.00;100846.31;5034923;28;19932;-82
2022/05/31 10:18:04;;;;;;;;;;;;;;;14.01;100.00;100846.09;5057683;28;19936;-82
2022/05/31 10:20:51;;;;;;;;;;;;;;;13.91;100.00;100851.75;5029353;28;20878;-81
2022/05/31 10:23:30;;;;;;;;;;;;;;;14.07;100.00;100852.28;5031571;28;20371;-82
2022/05/31 10:26:26;;;;;;;;;;;;;;;14.16;100.00;100853.25;5034508;28;19933;-80
2022/05/31 10:29:16;;;;;;;;;;;;;;;14.19;100.00;100847.16;5029137;28;19943;-82
2022/05/31 10:32:19;;;;;;;;;;;;;;;14.70;100.00;100856.41;5043102;28;19939;-82
2022/05/31 10:35:05;;;;;;;;;;;;;;;14.59;100.00;100846.72;5029899;28;20134;-82
2022/05/31 10:37:47;;;;;;;;;;;;;;;14.37;100.00;100850.16;5042537;28;21622;-81
2022/05/31 10:40:23;;;;;;;;;;;;;;;14.59;100.00;100849.47;5034918;28;19933;-82
2022/05/31 10:42:58;;;;;;;;;;;;;;;14.71;100.00;100843.53;5035460;28;19933;-82
2022/05/31 10:45:32;;;;;;;;;;;;;;;14.57;100.00;100844.31;5040862;28;20300;-81
2022/05/31 10:48:05;;;;;;;;;;;;;;;14.81;100.00;100851.53;5030560;28;19939;-82
2022/05/31 10:50:42;;;;;;;;;;;;;;;14.91;100.00;100851.31;5027902;28;19932;-81
2022/05/31 10:53:18;;;;;;;;;;;;;;;14.87;100.00;100842.09;5033999;28;19932;-82
2022/05/31 10:55:54;;;;;;;;;;;;;;;14.96;100.00;100845.75;5028675;28;19928;-82
2022/05/31 10:58:33;;;;;;;;;;;;;;;15.46;100.00;100838.66;5037274;28;19943;-83
2022/05/31 11:01:13;;;;;;;;;;;;;;;15.79;100.00;100827.47;5030348;28;20003;-84
2022/05/31 11:03:53;;;;;;;;;;;;;;;16.01;100.00;100826.69;5029621;28;19928;-84
2022/05/31 11:06:33;;;;;;;;;;;;;;;15.75;98.09;100824.53;5036900;28;19939;-84
2022/05/31 11:12:17;;;;;;;;;;;;;;;14.79;92.67;100829.94;5039826;28;19932;-82
2022/05/31 11:14:54;;;;;;;;;;;;;;;15.52;100.00;100831.13;5052820;28;19943;-81
2022/05/31 11:17:31;;;;;;;;;;;;;;;15.63;93.94;100825.13;5039039;28;20599;-81
2022/05/31 11:20:03;;;;;;;;;;;;;;;15.96;94.24;100819.41;5050837;28;19932;-81
2022/05/31 11:22:40;;;;;;;;;;;;;;;16.22;92.66;100823.44;5036967;28;21413;-82
2022/05/31 11:25:22;;;;;;;;;;;;;;;16.18;87.77;100822.44;5035522;28;19933;-81
2022/05/31 11:28:00;;;;;;;;;;;;;;;15.78;90.57;100815.72;5043668;28;19939;-82
2022/05/31 11:30:31;;;;;;;;;;;;;;;15.22;76.66;100817.81;5037802;28;19939;-83
2022/05/31 11:33:14;;;;;;;;;;;;;;;15.55;83.45;100819.53;5041433;28;19932;-83
2022/05/31 11:35:56;;;;;;;;;;;;;;;15.83;81.97;100812.06;5065765;28;19935;-83
2022/05/31 11:38:27;;;;;;;;;;;;;;;16.19;90.75;100811.13;5049513;28;19928;-82
2022/05/31 11:41:07;;;;;;;;;;;;;;;15.87;85.57;100803.97;5043085;28;19939;-81
2022/05/31 11:43:52;;;;;;;;;;;;;;;15.87;87.07;100809.47;5045120;28;19940;-82
2022/05/31 11:46:26;;;;;;;;;;;;;;;15.27;73.45;100811.41;5035791;28;19933;-82
2022/05/31 11:49:01;;;;;;;;;;;;;;;15.74;78.58;100797.41;5040489;28;19947;-84
2022/05/31 11:51:40;;;;;;;;;;;;;;;15.95;78.71;100801.31;5037495;28;19948;-80
2022/05/31 11:54:24;;;;;;;;;;;;;;;15.21;64.09;100796.19;5036355;28;19948;-85
2022/05/31 11:57:05;;;;;;;;;;;;;;;15.06;75.09;100792.66;5036867;28;19943;-82
2022/05/31 11:59:40;;;;;;;;;;;;;;;15.20;79.51;100800.03;5038753;28;19940;-81
2022/05/31 12:02:16;;;;;;;;;;;;;;;15.38;87.20;100796.31;5056073;28;19943;-83
2022/05/31 12:04:53;;;;;;;;;;;;;;;15.68;97.94;100783.00;5034828;28;19944;-81
2022/05/31 12:07:31;;;;;;;;;;;;;;;16.06;91.57;100781.81;5040392;28;19933;-83
2022/05/31 12:10:01;;;;;;;;;;;;;;;15.49;88.36;100774.97;5036760;28;19940;-84
2022/05/31 12:12:31;;;;;;;;;;;;;;;16.20;92.41;100777.06;5041799;28;20679;-82
2022/05/31 12:15:07;;;;;;;;;;;;;;;16.10;70.07;100767.19;5036883;28;19925;-83
2022/05/31 12:17:43;;;;;;;;;;;;;;;16.55;84.63;100765.41;5036108;28;19932;-82
2022/05/31 12:20:15;;;;;;;;;;;;;;;16.62;77.20;100760.25;5040466;28;21162;-84
2022/05/31 12:22:52;;;;;;;;;;;;;;;16.81;76.87;100755.28;5036442;28;19932;-83
2022/05/31 12:25:21;;;;;;;;;;;;;;;17.17;91.27;100756.19;5037159;28;19943;-82
2022/05/31 12:27:58;;;;;;;;;;;;;;;17.26;82.54;100757.00;5032265;28;19933;-82
2022/05/31 12:30:29;;;;;;;;;;;;;;;16.56;74.07;100759.59;5036421;28;19939;-81
2022/05/31 12:33:01;;;;;;;;;;;;;;;16.20;77.87;100763.34;5039594;28;20599;-83
2022/05/31 12:35:48;;;;;;;;;;;;;;;16.17;68.64;100760.41;5053573;28;19928;-82
2022/05/31 12:38:16;;;;;;;;;;;;;;;16.18;68.95;100751.84;5030843;28;20019;-81
2022/05/31 12:40:50;;;;;;;;;;;;;;;16.11;76.68;100757.78;5037245;28;19933;-83
2022/05/31 12:43:42;;;;;;;;;;;;;;;16.34;82.92;100749.50;5035270;28;19939;-82
2022/05/31 12:46:22;;;;;;;;;;;;;;;16.38;86.02;100752.41;5042870;28;19940;-83
2022/05/31 12:48:58;;;;;;;;;;;;;;;16.44;89.55;100751.16;5035433;28;19933;-82
2022/05/31 12:51:31;;;;;;;;;;;;;;;16.47;90.74;100759.59;5041080;28;20690;-83
2022/05/31 12:54:05;;;;;;;;;;;;;;;16.60;100.00;100752.34;5042874;28;19932;-84
2022/05/31 12:56:55;;;;;;;;;;;;;;;16.28;95.53;100748.00;5050841;28;19943;-82
2022/05/31 12:59:51;;;;;;;;;;;;;;;16.06;74.90;100746.13;5034057;28;19939;-84
2022/05/31 13:02:36;;;;;;;;;;;;;;;16.35;89.18;100751.13;5034119;28;19933;-84
2022/05/31 13:05:09;;;;;;;;;;;;;;;16.47;96.86;100747.78;5038837;28;19947;-83
2022/05/31 13:07:44;;;;;;;;;;;;;;;16.27;79.47;100751.91;5054213;28;19932;-84
2022/05/31 13:10:30;;;;;;;;;;;;;;;15.92;69.90;100752.56;5043851;28;20328;-83
2022/05/31 13:21:33;;;;;;;;;;;;;;;15.34;63.14;100742.44;5038067;28;20489;-82
2022/05/31 13:24:04;;;;;;;;;;;;;;;15.19;67.31;100747.16;5046371;28;19939;-83
2022/05/31 13:26:37;;;;;;;;;;;;;;;15.34;81.82;100751.44;5039716;28;19932;-82
2022/05/31 13:29:13;;;;;;;;;;;;;;;15.21;71.14;100752.31;5056252;28;19940;-82
2022/05/31 13:31:48;;;;;;;;;;;;;;;15.38;69.82;100754.41;5041116;28;19933;-83
2022/05/31 13:34:28;;;;;;;;;;;;;;;15.32;73.45;100753.72;5049413;28;20748;-83
2022/05/31 13:37:02;;;;;;;;;;;;;;;15.29;76.47;100755.13;5039791;28;19940;-82
2022/05/31 13:39:41;;;;;;;;;;;;;;;15.29;78.13;100755.13;5038647;28;21210;-82
2022/05/31 13:42:16;;;;;;;;;;;;;;;15.36;74.77;100757.44;5042207;28;19952;-83
2022/05/31 13:44:50;;;;;;;;;;;;;;;15.24;87.43;100759.94;5040099;28;19935;-83
2022/05/31 13:47:23;;;;;;;;;;;;;;;15.17;79.87;100754.88;5041004;28;19933;-83
2022/05/31 13:49:52;;;;;;;;;;;;;;;15.20;79.39;100756.97;5044162;28;19932;-83
2022/05/31 13:52:27;;;;;;;;;;;;;;;15.13;90.31;100757.44;5037333;28;19928;-82
2022/05/31 13:55:08;;;;;;;;;;;;;;;15.16;87.33;100753.25;5039426;28;20297;-83
2022/05/31 13:57:48;;;;;;;;;;;;;;;15.04;78.77;100750.22;5037405;28;19940;-82